Stapleton, Georgia
Current Conditions -  °F | °C
As of 2:55 AM on Sunday 26 Oct 2014 (Local Time) from KHQU Reporting Station
Clear Clear  
Wind Chill: 57°   Ceiling: Unl
Heat Index: 57°   Visibility: 10mi
Dew Point: 56°   Wind: 5mph
Humidity: 97%   Direction: 300°WNW
Pressure: 29.99"   Gusts: NA
Location:  33.22°N, 82.47°W
Report Text: KHQU 260655Z AUTO 30004KT 10SM CLR 14/13 A2999 RMK AO1 T01370133
Loading
Personal Weather Stations






























Interactive Weather Map
Tropical Storm Tracking
New forecast layout! Learn more

10-Day Weather Forecast

Advertisements
Track Severe Weather on mobile